Time;durP1;ratioP1;P1;durP2;ratioP2;P2;SDS_P1;SDS_P2;PMS_P1;PMS_P2;Temp;Humidity;BMP_temperature;BMP_pressure;BME280_temperature;BME280_humidity;BME280_pressure;Samples;Min_cycle;Max_cycle;Signal;HPM_P1;HPM_P2
2023/09/04 00:00:53;;;;;;;4.50;3.37;;;;;;;;;;4994881;28;20235;-84
2023/09/04 00:03:20;;;;;;;4.53;3.20;;;;;;;;;;4981930;28;20201;-84
2023/09/04 00:05:49;;;;;;;3.50;3.20;;;;;;;;;;4993088;28;20255;-84
2023/09/04 00:08:16;;;;;;;3.70;3.27;;;;;;;;;;4982259;28;20252;-84
2023/09/04 00:10:44;;;;;;;7.20;3.90;;;;;;;;;;4991769;28;20224;-84
2023/09/04 00:13:11;;;;;;;4.50;3.70;;;;;;;;;;4984013;28;20208;-84
2023/09/04 00:15:38;;;;;;;3.80;3.50;;;;;;;;;;4984176;28;20295;-85
2023/09/04 00:18:06;;;;;;;3.80;3.43;;;;;;;;;;4994494;28;20227;-84
2023/09/04 00:20:33;;;;;;;3.70;3.33;;;;;;;;;;4986371;28;20694;-84
2023/09/04 00:23:01;;;;;;;4.00;3.60;;;;;;;;;;4986076;28;20207;-85
2023/09/04 00:25:28;;;;;;;3.63;3.33;;;;;;;;;;4995131;28;20232;-84
2023/09/04 00:27:57;;;;;;;4.00;3.63;;;;;;;;;;4992875;28;20232;-84
2023/09/04 00:30:25;;;;;;;7.00;3.43;;;;;;;;;;4989576;28;20232;-85
2023/09/04 00:32:52;;;;;;;5.57;4.23;;;;;;;;;;4995402;28;20294;-85
2023/09/04 00:35:19;;;;;;;9.30;4.23;;;;;;;;;;4983333;28;20695;-85
2023/09/04 00:37:46;;;;;;;4.10;3.63;;;;;;;;;;4984755;28;20232;-85
2023/09/04 00:40:15;;;;;;;5.00;4.13;;;;;;;;;;4994555;28;20716;-84
2023/09/04 00:42:42;;;;;;;7.60;4.90;;;;;;;;;;4987187;28;20250;-85
2023/09/04 00:45:11;;;;;;;9.57;4.87;;;;;;;;;;4995033;28;20235;-84
2023/09/04 00:47:39;;;;;;;5.23;4.10;;;;;;;;;;4995050;28;20232;-85
2023/09/04 00:50:07;;;;;;;9.73;4.40;;;;;;;;;;4978748;28;21416;-85
2023/09/04 00:52:34;;;;;;;5.93;4.00;;;;;;;;;;4994971;28;20663;-86
2023/09/04 00:55:03;;;;;;;9.50;3.97;;;;;;;;;;4986365;28;20220;-85
2023/09/04 00:57:32;;;;;;;3.90;3.53;;;;;;;;;;4995029;28;20224;-86
2023/09/04 01:00:02;;;;;;;4.97;4.00;;;;;;;;;;4991805;28;20204;-85
2023/09/04 01:02:29;;;;;;;4.93;3.87;;;;;;;;;;4990378;28;20259;-85
2023/09/04 01:04:56;;;;;;;4.80;4.00;;;;;;;;;;4986601;28;20208;-85
2023/09/04 01:07:23;;;;;;;6.57;3.87;;;;;;;;;;4993351;28;20228;-84
2023/09/04 01:09:50;;;;;;;4.13;3.77;;;;;;;;;;4995643;28;20212;-84
2023/09/04 01:12:21;;;;;;;6.63;4.30;;;;;;;;;;4994981;28;20678;-85
2023/09/04 01:14:53;;;;;;;4.60;4.20;;;;;;;;;;4986288;28;20212;-84
2023/09/04 01:17:20;;;;;;;4.50;4.10;;;;;;;;;;4994460;28;20212;-85
2023/09/04 01:19:48;;;;;;;7.53;4.07;;;;;;;;;;4994493;28;20200;-83
2023/09/04 01:22:16;;;;;;;7.00;4.40;;;;;;;;;;4994862;28;20215;-85
2023/09/04 01:24:44;;;;;;;4.63;4.23;;;;;;;;;;4988875;28;20210;-84
2023/09/04 01:27:15;;;;;;;4.53;4.13;;;;;;;;;;4992544;28;20224;-84
2023/09/04 01:29:50;;;;;;;4.47;4.07;;;;;;;;;;4985815;28;20226;-84
2023/09/04 01:32:20;;;;;;;5.57;3.73;;;;;;;;;;4997003;28;20223;-84
2023/09/04 01:34:49;;;;;;;4.23;3.47;;;;;;;;;;4996855;28;20223;-82
2023/09/04 01:37:18;;;;;;;5.13;3.60;;;;;;;;;;4989517;28;20234;-84
2023/09/04 01:39:46;;;;;;;5.13;3.63;;;;;;;;;;4998752;28;20212;-84
2023/09/04 01:42:13;;;;;;;5.00;4.27;;;;;;;;;;4997964;28;20227;-84
2023/09/04 01:44:41;;;;;;;4.30;3.90;;;;;;;;;;4998146;28;20207;-84
2023/09/04 01:47:08;;;;;;;4.73;4.07;;;;;;;;;;4985936;28;20233;-83
2023/09/04 01:49:35;;;;;;;5.10;3.90;;;;;;;;;;4985753;28;20663;-84
2023/09/04 01:52:02;;;;;;;9.80;5.83;;;;;;;;;;4997414;28;20235;-84
2023/09/04 01:54:31;;;;;;;4.13;3.73;;;;;;;;;;4998477;28;20212;-84
2023/09/04 01:56:58;;;;;;;4.00;3.60;;;;;;;;;;4997010;28;20236;-84
2023/09/04 01:59:25;;;;;;;5.87;4.20;;;;;;;;;;4997945;28;20205;-84
2023/09/04 02:01:52;;;;;;;5.40;3.90;;;;;;;;;;4996188;28;20810;-85
2023/09/04 02:04:19;;;;;;;3.90;3.60;;;;;;;;;;4991215;28;20694;-84
2023/09/04 02:06:47;;;;;;;4.80;4.40;;;;;;;;;;4997205;28;20859;-84
2023/09/04 02:09:14;;;;;;;4.77;4.33;;;;;;;;;;4997583;28;20208;-85
2023/09/04 02:11:42;;;;;;;4.23;3.83;;;;;;;;;;4981699;28;20241;-84
2023/09/04 02:14:09;;;;;;;4.70;3.50;;;;;;;;;;4989761;28;20208;-84
2023/09/04 02:16:37;;;;;;;6.27;3.73;;;;;;;;;;4997072;28;20267;-84
2023/09/04 02:19:04;;;;;;;4.47;4.07;;;;;;;;;;4997399;28;20270;-84
2023/09/04 02:21:32;;;;;;;4.40;4.00;;;;;;;;;;4990749;28;20233;-84
2023/09/04 02:23:59;;;;;;;5.17;3.10;;;;;;;;;;4994139;28;20208;-84
2023/09/04 02:26:26;;;;;;;3.43;3.20;;;;;;;;;;4990937;28;20220;-84
2023/09/04 02:28:55;;;;;;;3.63;3.33;;;;;;;;;;4997052;28;20207;-84
2023/09/04 02:31:22;;;;;;;3.30;2.97;;;;;;;;;;4991931;28;20229;-84
2023/09/04 02:33:50;;;;;;;3.67;3.20;;;;;;;;;;4993256;28;20212;-83
2023/09/04 02:36:17;;;;;;;4.50;3.50;;;;;;;;;;4994749;28;20266;-84
2023/09/04 02:38:44;;;;;;;4.27;3.87;;;;;;;;;;4996919;28;20227;-84
2023/09/04 02:41:11;;;;;;;4.20;3.47;;;;;;;;;;4996594;28;20243;-84
2023/09/04 02:43:38;;;;;;;5.13;3.10;;;;;;;;;;4997141;28;20219;-84
2023/09/04 02:46:06;;;;;;;3.30;3.00;;;;;;;;;;4988495;28;20232;-84
2023/09/04 02:48:33;;;;;;;5.77;2.90;;;;;;;;;;4990599;28;20235;-84
2023/09/04 02:51:01;;;;;;;2.93;2.67;;;;;;;;;;4987126;28;20236;-84
2023/09/04 02:53:28;;;;;;;3.27;2.97;;;;;;;;;;4996833;28;20204;-84
2023/09/04 02:55:56;;;;;;;5.53;3.10;;;;;;;;;;4996049;28;20794;-84
2023/09/04 02:58:24;;;;;;;2.93;2.73;;;;;;;;;;4992151;28;20248;-84
2023/09/04 03:00:51;;;;;;;2.50;2.27;;;;;;;;;;4992789;28;20275;-84
2023/09/04 03:03:20;;;;;;;3.33;2.43;;;;;;;;;;4987024;28;20711;-84
2023/09/04 03:05:47;;;;;;;2.57;2.37;;;;;;;;;;4996189;28;20231;-84
2023/09/04 03:08:14;;;;;;;2.60;2.40;;;;;;;;;;4992774;28;20770;-84
2023/09/04 03:10:41;;;;;;;2.90;2.70;;;;;;;;;;4992916;28;20693;-84
2023/09/04 03:13:08;;;;;;;2.50;2.30;;;;;;;;;;4988666;28;20215;-84
2023/09/04 03:15:35;;;;;;;4.30;2.27;;;;;;;;;;4996484;28;20240;-84
2023/09/04 03:18:02;;;;;;;2.40;2.30;;;;;;;;;;4986356;28;20223;-84
2023/09/04 03:20:30;;;;;;;2.57;2.37;;;;;;;;;;4990660;28;20635;-84
2023/09/04 03:22:57;;;;;;;2.60;2.40;;;;;;;;;;4988128;28;20690;-85
2023/09/04 03:25:25;;;;;;;2.17;2.07;;;;;;;;;;4995979;28;20208;-84
2023/09/04 03:27:52;;;;;;;3.43;2.10;;;;;;;;;;4995647;28;20222;-84
2023/09/04 03:30:19;;;;;;;2.00;1.90;;;;;;;;;;4984367;28;20232;-84
2023/09/04 03:32:49;;;;;;;2.20;2.10;;;;;;;;;;4991455;28;20663;-84
2023/09/04 03:35:17;;;;;;;2.60;2.40;;;;;;;;;;4986685;28;20228;-84
2023/09/04 03:37:46;;;;;;;2.40;2.30;;;;;;;;;;4995132;28;20232;-84
2023/09/04 03:40:18;;;;;;;2.50;2.30;;;;;;;;;;4995051;28;20583;-84
2023/09/04 03:42:46;;;;;;;2.60;2.40;;;;;;;;;;4987929;28;20200;-80
2023/09/04 03:45:13;;;;;;;3.17;2.57;;;;;;;;;;4985942;28;20223;-80
2023/09/04 03:47:41;;;;;;;2.23;2.13;;;;;;;;;;4985395;28;20231;-80
2023/09/04 03:50:10;;;;;;;2.93;2.50;;;;;;;;;;4985547;28;20236;-80
2023/09/04 03:52:38;;;;;;;2.53;2.43;;;;;;;;;;4994026;28;20271;-80
2023/09/04 03:55:07;;;;;;;5.07;2.97;;;;;;;;;;4993627;28;20567;-80
2023/09/04 03:57:36;;;;;;;4.50;2.70;;;;;;;;;;4994290;28;20231;-80
2023/09/04 04:00:03;;;;;;;2.80;2.60;;;;;;;;;;4984602;28;20243;-80
2023/09/04 04:02:30;;;;;;;4.03;3.00;;;;;;;;;;4993898;28;20288;-80
2023/09/04 04:04:57;;;;;;;2.97;2.77;;;;;;;;;;4992404;28;20216;-80
2023/09/04 04:07:24;;;;;;;3.03;2.63;;;;;;;;;;4980543;28;20576;-80
2023/09/04 04:09:51;;;;;;;3.50;3.20;;;;;;;;;;4992829;28;20575;-80
2023/09/04 04:12:22;;;;;;;3.57;3.33;;;;;;;;;;4990385;28;20578;-80
2023/09/04 04:14:50;;;;;;;4.10;3.70;;;;;;;;;;4991419;28;20803;-81
2023/09/04 04:17:17;;;;;;;4.40;3.60;;;;;;;;;;4990046;28;20229;-80
2023/09/04 04:19:44;;;;;;;5.87;3.77;;;;;;;;;;4989369;28;20566;-80
2023/09/04 04:22:11;;;;;;;9.20;3.40;;;;;;;;;;4985353;28;20212;-80
2023/09/04 04:24:38;;;;;;;4.50;3.40;;;;;;;;;;4993872;28;20204;-80
2023/09/04 04:27:06;;;;;;;3.83;3.23;;;;;;;;;;4993060;28;20235;-80
2023/09/04 04:29:34;;;;;;;3.60;3.30;;;;;;;;;;4988340;28;20219;-80
2023/09/04 04:32:01;;;;;;;5.60;3.37;;;;;;;;;;4990549;28;20315;-80
2023/09/04 04:34:28;;;;;;;8.30;3.17;;;;;;;;;;4988868;28;20216;-80
2023/09/04 04:36:57;;;;;;;3.70;3.40;;;;;;;;;;4988107;28;20231;-78
2023/09/04 04:39:24;;;;;;;3.93;3.53;;;;;;;;;;4991792;28;20204;-81
2023/09/04 04:41:51;;;;;;;4.20;3.80;;;;;;;;;;4988391;28;20235;-82
2023/09/04 04:44:18;;;;;;;6.30;4.00;;;;;;;;;;4993881;28;20208;-82
2023/09/04 04:46:48;;;;;;;4.80;3.43;;;;;;;;;;4994012;28;20231;-82
2023/09/04 04:49:16;;;;;;;4.03;3.63;;;;;;;;;;4987961;28;20200;-83
2023/09/04 04:51:43;;;;;;;3.73;3.43;;;;;;;;;;4986339;28;20239;-83
2023/09/04 04:54:10;;;;;;;3.40;3.13;;;;;;;;;;4994879;28;20214;-83
2023/09/04 04:56:39;;;;;;;3.53;3.23;;;;;;;;;;4994454;28;20231;-82
2023/09/04 04:59:07;;;;;;;4.67;3.27;;;;;;;;;;4997533;28;20551;-82
2023/09/04 05:01:34;;;;;;;6.10;3.13;;;;;;;;;;4990150;28;20320;-82
2023/09/04 05:04:03;;;;;;;3.00;2.80;;;;;;;;;;4982400;28;20205;-82
2023/09/04 05:06:30;;;;;;;4.43;3.17;;;;;;;;;;4992414;28;20228;-82
2023/09/04 05:08:57;;;;;;;2.93;2.73;;;;;;;;;;4993250;28;20211;-83
2023/09/04 05:11:24;;;;;;;2.83;2.63;;;;;;;;;;4977909;28;20236;-83
2023/09/04 05:13:51;;;;;;;3.40;3.10;;;;;;;;;;4992762;28;20220;-81
2023/09/04 05:16:18;;;;;;;3.33;3.03;;;;;;;;;;4995278;28;20232;-82
2023/09/04 05:18:45;;;;;;;3.60;3.30;;;;;;;;;;4996248;28;20228;-82
2023/09/04 05:21:13;;;;;;;3.47;3.17;;;;;;;;;;4988740;28;20228;-82
2023/09/04 05:23:42;;;;;;;3.80;3.50;;;;;;;;;;4982252;28;20212;-82
2023/09/04 05:26:09;;;;;;;4.97;4.23;;;;;;;;;;4992685;28;20574;-81
2023/09/04 05:28:37;;;;;;;5.83;3.83;;;;;;;;;;4990686;28;20236;-81
2023/09/04 05:31:04;;;;;;;4.80;4.30;;;;;;;;;;4995494;28;20235;-81
2023/09/04 05:33:31;;;;;;;5.27;4.10;;;;;;;;;;4991533;28;20208;-82
2023/09/04 05:35:59;;;;;;;5.50;4.40;;;;;;;;;;4992088;28;20718;-81
2023/09/04 05:38:27;;;;;;;4.70;4.30;;;;;;;;;;4995931;28;20567;-81
2023/09/04 05:40:55;;;;;;;6.53;5.53;;;;;;;;;;4987397;28;20239;-80
2023/09/04 05:43:22;;;;;;;7.33;5.40;;;;;;;;;;4987786;28;20232;-80
2023/09/04 05:45:49;;;;;;;6.00;5.40;;;;;;;;;;4995162;28;20693;-80
2023/09/04 05:48:16;;;;;;;7.73;5.43;;;;;;;;;;4995117;28;20232;-80
2023/09/04 05:50:43;;;;;;;7.67;6.57;;;;;;;;;;4994885;28;20764;-80
2023/09/04 05:53:10;;;;;;;9.60;6.93;;;;;;;;;;4995067;28;20208;-80
2023/09/04 05:55:39;;;;;;;10.27;7.80;;;;;;;;;;4986714;28;20239;-80
2023/09/04 05:58:06;;;;;;;13.60;8.23;;;;;;;;;;4994832;28;20228;-81
2023/09/04 06:00:33;;;;;;;11.10;9.90;;;;;;;;;;4989880;28;20235;-81
2023/09/04 06:03:00;;;;;;;9.90;8.40;;;;;;;;;;4992496;28;20208;-81
2023/09/04 06:05:28;;;;;;;10.13;8.13;;;;;;;;;;4994841;28;20235;-81
2023/09/04 06:07:56;;;;;;;10.83;8.33;;;;;;;;;;4995233;28;20230;-81
2023/09/04 06:10:23;;;;;;;12.40;7.87;;;;;;;;;;4978563;28;20294;-81
2023/09/04 06:12:52;;;;;;;11.67;8.77;;;;;;;;;;4995597;28;20702;-81
2023/09/04 06:15:19;;;;;;;12.47;9.00;;;;;;;;;;4994734;28;20256;-80
2023/09/04 06:17:46;;;;;;;13.77;9.87;;;;;;;;;;4994402;28;20240;-79
2023/09/04 06:20:13;;;;;;;10.17;8.83;;;;;;;;;;4993862;28;20235;-79
2023/09/04 06:22:40;;;;;;;14.90;10.07;;;;;;;;;;4986443;28;20207;-78
2023/09/04 06:25:08;;;;;;;13.90;10.10;;;;;;;;;;4993756;28;20724;-78
2023/09/04 06:27:35;;;;;;;12.60;10.17;;;;;;;;;;4994266;28;20708;-78
2023/09/04 06:30:05;;;;;;;14.63;10.37;;;;;;;;;;4993603;28;20212;-80
2023/09/04 06:32:32;;;;;;;13.67;10.17;;;;;;;;;;4994689;28;20243;-80
2023/09/04 06:35:00;;;;;;;12.13;10.27;;;;;;;;;;4993837;28;20295;-80
2023/09/04 06:37:27;;;;;;;11.17;9.90;;;;;;;;;;4993831;28;20291;-80
2023/09/04 06:39:54;;;;;;;10.37;9.20;;;;;;;;;;4993571;28;20208;-79
2023/09/04 06:42:21;;;;;;;10.70;9.30;;;;;;;;;;4993958;28;20224;-80
2023/09/04 06:44:48;;;;;;;10.00;8.97;;;;;;;;;;4989210;28;20232;-80
2023/09/04 06:47:16;;;;;;;11.33;8.83;;;;;;;;;;4993642;28;20228;-80
2023/09/04 06:49:43;;;;;;;11.97;9.17;;;;;;;;;;4993581;28;20226;-81
2023/09/04 06:52:10;;;;;;;10.37;8.47;;;;;;;;;;4993843;28;20219;-80
2023/09/04 06:54:37;;;;;;;9.97;9.00;;;;;;;;;;4994031;28;20208;-80
2023/09/04 06:57:05;;;;;;;8.97;8.10;;;;;;;;;;4993263;28;20257;-80
2023/09/04 06:59:32;;;;;;;10.90;7.90;;;;;;;;;;4994037;28;20212;-80
2023/09/04 07:01:59;;;;;;;7.40;6.70;;;;;;;;;;4993391;28;20239;-80
2023/09/04 07:04:27;;;;;;;7.43;6.67;;;;;;;;;;4985721;28;20208;-80
2023/09/04 07:06:54;;;;;;;8.13;6.10;;;;;;;;;;4993087;28;20239;-80
2023/09/04 07:09:21;;;;;;;7.23;6.43;;;;;;;;;;4987047;28;20204;-80
2023/09/04 07:11:48;;;;;;;6.80;5.40;;;;;;;;;;4987763;28;20232;-80
2023/09/04 07:14:15;;;;;;;5.87;5.23;;;;;;;;;;4992883;28;20204;-79
2023/09/04 07:16:42;;;;;;;6.27;5.30;;;;;;;;;;4992162;28;20247;-79
2023/09/04 07:19:09;;;;;;;7.60;5.13;;;;;;;;;;4991855;28;20219;-80
2023/09/04 07:21:40;;;;;;;5.50;4.93;;;;;;;;;;4991389;28;20232;-79
2023/09/04 07:24:07;;;;;;;7.00;4.43;;;;;;;;;;4984812;28;20316;-79
2023/09/04 07:26:34;;;;;;;4.50;4.10;;;;;;;;;;4991231;28;20235;-79
2023/09/04 07:29:01;;;;;;;6.23;3.90;;;;;;;;;;4991460;28;20216;-79
2023/09/04 07:31:29;;;;;;;4.30;3.90;;;;;;;;;;4991857;28;20227;-79
2023/09/04 07:33:56;;;;;;;4.90;3.53;;;;;;;;;;4992436;28;20207;-79
2023/09/04 07:36:23;;;;;;;3.90;3.43;;;;;;;;;;4991611;28;20236;-79
2023/09/04 07:38:52;;;;;;;3.40;3.10;;;;;;;;;;4986257;28;20217;-80
2023/09/04 07:41:19;;;;;;;3.37;3.03;;;;;;;;;;4990879;28;20235;-80
2023/09/04 07:43:46;;;;;;;3.77;3.30;;;;;;;;;;4992487;28;20204;-80
2023/09/04 07:46:13;;;;;;;3.00;2.80;;;;;;;;;;4991934;28;20243;-80
2023/09/04 07:48:40;;;;;;;4.07;3.13;;;;;;;;;;4991998;28;20235;-79
2023/09/04 07:51:07;;;;;;;2.97;2.70;;;;;;;;;;4991851;28;20243;-80
2023/09/04 07:53:34;;;;;;;3.53;2.88;;;;;;;;;;4992478;28;20204;-80
2023/09/04 07:56:03;;;;;;;3.92;2.55;;;;;;;;;;4991938;28;20623;-83
2023/09/04 07:58:30;;;;;;;3.22;2.72;;;;;;;;;;4982253;28;20245;-80
2023/09/04 08:00:57;;;;;;;2.90;2.70;;;;;;;;;;4987706;28;20232;-80
2023/09/04 08:03:24;;;;;;;2.78;2.58;;;;;;;;;;4991998;28;20212;-80
2023/09/04 08:05:51;;;;;;;2.90;2.60;;;;;;;;;;4991820;28;20240;-81
2023/09/04 08:08:18;;;;;;;3.13;2.58;;;;;;;;;;4991708;28;20228;-80
2023/09/04 08:10:49;;;;;;;5.13;3.15;;;;;;;;;;4991333;28;20324;-80
2023/09/04 08:13:19;;;;;;;2.65;2.45;;;;;;;;;;4992077;28;20212;-80
2023/09/04 08:15:46;;;;;;;4.72;2.35;;;;;;;;;;4991448;28;20232;-80
2023/09/04 08:18:13;;;;;;;2.58;2.38;;;;;;;;;;4991654;28;20228;-80
2023/09/04 08:20:40;;;;;;;2.97;2.65;;;;;;;;;;4986811;28;20311;-81
2023/09/04 08:23:09;;;;;;;2.70;2.50;;;;;;;;;;4991903;28;20593;-81
2023/09/04 08:25:36;;;;;;;2.50;2.30;;;;;;;;;;4991376;28;20294;-80
2023/09/04 08:28:03;;;;;;;2.28;2.10;;;;;;;;;;4991661;28;20227;-81
2023/09/04 08:30:32;;;;;;;3.33;2.30;;;;;;;;;;4983496;28;20236;-81
2023/09/04 08:32:59;;;;;;;2.13;2.00;;;;;;;;;;4991616;28;20215;-81
2023/09/04 08:35:28;;;;;;;2.30;2.10;;;;;;;;;;4991283;28;20231;-81
2023/09/04 08:37:56;;;;;;;2.03;1.92;;;;;;;;;;4998609;28;20683;-81
2023/09/04 08:40:23;;;;;;;3.47;2.30;;;;;;;;;;4989331;28;20594;-81
2023/09/04 08:42:51;;;;;;;2.90;2.45;;;;;;;;;;4987168;28;20212;-81
2023/09/04 08:45:19;;;;;;;3.35;2.10;;;;;;;;;;4991288;28;20231;-81
2023/09/04 08:47:48;;;;;;;6.13;2.17;;;;;;;;;;4992095;28;20235;-80
2023/09/04 08:50:16;;;;;;;1.92;1.83;;;;;;;;;;4991705;28;20232;-81
2023/09/04 08:52:43;;;;;;;3.17;2.00;;;;;;;;;;4992400;28;20203;-81
2023/09/04 08:55:10;;;;;;;3.38;2.78;;;;;;;;;;4991460;28;20239;-82
2023/09/04 08:57:39;;;;;;;3.13;1.50;;;;;;;;;;4991711;28;20254;-81
2023/09/04 09:00:07;;;;;;;2.10;2.00;;;;;;;;;;4991393;28;20649;-81
2023/09/04 09:02:34;;;;;;;4.00;2.28;;;;;;;;;;4991837;28;20215;-81
2023/09/04 09:05:04;;;;;;;3.63;1.90;;;;;;;;;;4991485;28;20720;-82
2023/09/04 09:07:32;;;;;;;2.05;1.92;;;;;;;;;;4991533;28;20220;-81
2023/09/04 09:10:02;;;;;;;3.63;1.80;;;;;;;;;;4991666;28;20212;-81
2023/09/04 09:12:29;;;;;;;2.72;1.98;;;;;;;;;;4991774;28;20935;-81
2023/09/04 09:14:59;;;;;;;2.00;1.80;;;;;;;;;;4991441;28;20696;-81
2023/09/04 09:17:26;;;;;;;1.95;1.85;;;;;;;;;;4991591;28;20243;-83
2023/09/04 09:19:54;;;;;;;2.05;1.73;;;;;;;;;;4991618;28;20607;-83
2023/09/04 09:22:22;;;;;;;2.15;2.00;;;;;;;;;;4992598;28;20219;-84
2023/09/04 09:24:51;;;;;;;3.97;2.25;;;;;;;;;;4991256;28;20574;-83
2023/09/04 09:27:19;;;;;;;1.80;1.70;;;;;;;;;;4983717;28;20221;-82
2023/09/04 09:29:46;;;;;;;2.65;1.63;;;;;;;;;;4989969;28;20219;-82
2023/09/04 09:32:13;;;;;;;2.10;1.83;;;;;;;;;;4991573;28;20586;-83
2023/09/04 09:34:40;;;;;;;2.65;1.73;;;;;;;;;;4991380;28;20208;-82
2023/09/04 09:37:08;;;;;;;2.10;1.60;;;;;;;;;;4990929;28;20694;-82
2023/09/04 09:39:36;;;;;;;2.17;2.08;;;;;;;;;;4990363;28;20667;-82
2023/09/04 09:42:03;;;;;;;2.13;1.65;;;;;;;;;;4991624;28;20232;-83
2023/09/04 09:44:31;;;;;;;1.80;1.70;;;;;;;;;;4992670;28;20239;-84
2023/09/04 09:46:58;;;;;;;4.75;2.00;;;;;;;;;;4994620;28;20240;-83
2023/09/04 09:49:26;;;;;;;2.47;1.80;;;;;;;;;;4996035;28;20207;-86
2023/09/04 09:51:53;;;;;;;1.63;1.45;;;;;;;;;;4994819;28;20240;-83
2023/09/04 09:54:34;;;;;;;2.72;1.90;;;;;;;;;;4995438;28;20212;-85
2023/09/04 09:57:03;;;;;;;1.92;1.73;;;;;;;;;;4994885;28;20264;-84
2023/09/04 09:59:31;;;;;;;2.40;1.42;;;;;;;;;;4994987;28;20219;-85
2023/09/04 10:01:58;;;;;;;1.65;1.55;;;;;;;;;;4994928;28;20242;-85
2023/09/04 10:04:26;;;;;;;1.58;1.48;;;;;;;;;;4995390;28;20204;-84
2023/09/04 10:06:54;;;;;;;1.90;1.48;;;;;;;;;;4995264;28;20236;-84
2023/09/04 10:09:23;;;;;;;2.15;1.85;;;;;;;;;;4997132;28;20271;-85
2023/09/04 10:11:54;;;;;;;1.65;1.55;;;;;;;;;;4994662;28;20243;-84
2023/09/04 10:14:27;;;;;;;2.90;1.40;;;;;;;;;;4994036;28;20250;-84
2023/09/04 10:16:56;;;;;;;1.67;1.58;;;;;;;;;;4989863;28;20286;-85
2023/09/04 10:19:26;;;;;;;2.10;1.70;;;;;;;;;;4994975;28;20592;-84
2023/09/04 10:21:56;;;;;;;2.33;1.95;;;;;;;;;;4995076;28;20239;-87
2023/09/04 10:24:26;;;;;;;4.20;1.67;;;;;;;;;;4996819;28;20259;-90
2023/09/04 10:26:59;;;;;;;1.58;1.42;;;;;;;;;;4996557;28;20626;-87
2023/09/04 10:29:30;;;;;;;2.90;1.90;;;;;;;;;;4996334;28;20580;-86
2023/09/04 10:31:57;;;;;;;2.25;1.60;;;;;;;;;;4996322;28;20569;-86
2023/09/04 10:34:24;;;;;;;2.28;1.65;;;;;;;;;;4996553;28;20667;-86
2023/09/04 10:36:51;;;;;;;2.67;1.80;;;;;;;;;;4996090;28;20232;-87
2023/09/04 10:39:19;;;;;;;2.08;1.80;;;;;;;;;;4997113;28;20227;-85
2023/09/04 10:41:46;;;;;;;2.97;1.90;;;;;;;;;;4996531;28;20286;-86
2023/09/04 10:44:33;;;;;;;3.70;2.25;;;;;;;;;;4996920;28;20203;-86
2023/09/04 10:47:02;;;;;;;2.95;1.52;;;;;;;;;;4996620;28;20616;-87
2023/09/04 10:49:33;;;;;;;2.53;2.33;;;;;;;;;;4996539;28;20201;-85
2023/09/04 10:52:00;;;;;;;2.63;1.65;;;;;;;;;;4996146;28;20266;-89
2023/09/04 10:54:28;;;;;;;2.63;1.70;;;;;;;;;;4996380;28;20581;-86
2023/09/04 10:56:56;;;;;;;1.30;1.20;;;;;;;;;;4995267;28;20262;-85
2023/09/04 10:59:23;;;;;;;1.80;1.70;;;;;;;;;;4995427;28;20314;-85
2023/09/04 11:01:50;;;;;;;3.65;1.55;;;;;;;;;;4995382;28;20239;-84
2023/09/04 11:04:33;;;;;;;1.80;1.70;;;;;;;;;;4996297;28;20223;-85
2023/09/04 11:07:25;;;;;;;1.77;1.67;;;;;;;;;;4995182;28;20239;-85
2023/09/04 11:09:53;;;;;;;2.00;1.80;;;;;;;;;;4988639;28;20659;-85
2023/09/04 11:12:22;;;;;;;2.22;1.75;;;;;;;;;;4996252;28;20204;-87
2023/09/04 11:14:50;;;;;;;6.20;1.98;;;;;;;;;;4997207;28;20294;-85
2023/09/04 11:17:17;;;;;;;1.80;1.70;;;;;;;;;;4996212;28;20231;-83
2023/09/04 11:19:46;;;;;;;1.73;1.60;;;;;;;;;;4994841;28;20227;-85
2023/09/04 11:22:16;;;;;;;2.22;1.45;;;;;;;;;;4991938;28;20212;-85
2023/09/04 11:24:43;;;;;;;2.40;1.58;;;;;;;;;;4982770;28;20212;-83
2023/09/04 11:27:10;;;;;;;1.80;1.58;;;;;;;;;;4989491;28;20236;-83
2023/09/04 11:29:37;;;;;;;3.45;1.77;;;;;;;;;;4995529;28;20224;-84
2023/09/04 11:32:05;;;;;;;2.92;1.77;;;;;;;;;;4992815;28;20335;-84
2023/09/04 11:34:35;;;;;;;1.70;1.55;;;;;;;;;;4983516;28;20608;-83
2023/09/04 11:37:03;;;;;;;2.40;1.58;;;;;;;;;;4988857;28;20240;-84
2023/09/04 11:39:31;;;;;;;4.22;1.65;;;;;;;;;;4991471;28;20228;-82
2023/09/04 11:41:58;;;;;;;1.55;1.40;;;;;;;;;;4985442;28;20286;-83
2023/09/04 11:44:26;;;;;;;2.35;1.58;;;;;;;;;;4982987;28;20240;-85
2023/09/04 11:46:53;;;;;;;4.93;2.97;;;;;;;;;;4992593;28;20240;-83
2023/09/04 11:49:20;;;;;;;3.65;1.70;;;;;;;;;;4993273;28;20197;-83
2023/09/04 11:51:47;;;;;;;3.47;1.33;;;;;;;;;;4986533;28;20306;-84
2023/09/04 11:54:32;;;;;;;1.65;1.52;;;;;;;;;;4994695;28;20204;-84
2023/09/04 11:57:00;;;;;;;4.07;1.90;;;;;;;;;;4992302;28;20235;-84
2023/09/04 11:59:27;;;;;;;1.50;1.40;;;;;;;;;;4992939;28;20227;-83
2023/09/04 12:01:54;;;;;;;1.60;1.50;;;;;;;;;;4993604;28;20238;-84
2023/09/04 12:04:21;;;;;;;4.15;1.77;;;;;;;;;;4993702;28;20674;-84
2023/09/04 12:06:49;;;;;;;2.40;1.65;;;;;;;;;;4992831;28;20239;-84
2023/09/04 12:09:17;;;;;;;2.53;1.52;;;;;;;;;;4993887;28;20207;-83
2023/09/04 12:11:45;;;;;;;1.75;1.52;;;;;;;;;;4977511;28;20601;-84
2023/09/04 12:14:12;;;;;;;2.47;1.65;;;;;;;;;;4992572;28;20204;-84
2023/09/04 12:16:39;;;;;;;3.47;1.60;;;;;;;;;;4991936;28;20601;-83
2023/09/04 12:19:07;;;;;;;4.63;1.83;;;;;;;;;;4992952;28;20227;-85
2023/09/04 12:21:34;;;;;;;1.85;1.40;;;;;;;;;;4993958;28;20243;-84
2023/09/04 12:24:01;;;;;;;1.42;1.33;;;;;;;;;;4980301;28;20211;-89
2023/09/04 12:26:29;;;;;;;1.38;1.25;;;;;;;;;;4979895;28;20228;-90
2023/09/04 12:28:56;;;;;;;1.70;1.60;;;;;;;;;;4993028;28;20204;-85
2023/09/04 12:31:23;;;;;;;2.35;1.60;;;;;;;;;;4992635;28;20228;-84
2023/09/04 12:33:52;;;;;;;3.33;1.52;;;;;;;;;;4992841;28;20203;-84
2023/09/04 12:36:21;;;;;;;1.50;1.40;;;;;;;;;;4992049;28;20231;-83
2023/09/04 12:38:48;;;;;;;2.08;1.77;;;;;;;;;;4992718;28;20317;-83
2023/09/04 12:41:15;;;;;;;3.17;1.70;;;;;;;;;;4992018;28;20239;-83
2023/09/04 12:43:44;;;;;;;2.00;1.63;;;;;;;;;;4985317;28;20215;-83
2023/09/04 12:46:11;;;;;;;1.23;1.20;;;;;;;;;;4991626;28;20224;-83
2023/09/04 12:48:38;;;;;;;1.65;1.30;;;;;;;;;;4991672;28;20255;-83
2023/09/04 12:51:05;;;;;;;1.63;1.42;;;;;;;;;;4991535;28;20240;-83
2023/09/04 12:53:32;;;;;;;1.73;1.30;;;;;;;;;;4986809;28;20212;-83
2023/09/04 12:55:59;;;;;;;1.60;1.50;;;;;;;;;;4991661;28;20702;-83
2023/09/04 12:58:26;;;;;;;1.92;1.70;;;;;;;;;;4992448;28;20242;-83
2023/09/04 13:00:55;;;;;;;2.33;1.38;;;;;;;;;;4990949;28;20228;-83
2023/09/04 13:03:22;;;;;;;1.70;1.60;;;;;;;;;;4992555;28;20686;-86
2023/09/04 13:05:50;;;;;;;1.48;1.42;;;;;;;;;;4991743;28;20231;-86
2023/09/04 13:08:17;;;;;;;1.90;1.80;;;;;;;;;;4992557;28;20232;-86
2023/09/04 13:10:44;;;;;;;2.35;1.60;;;;;;;;;;4992565;28;20842;-86
2023/09/04 13:13:11;;;;;;;2.15;1.80;;;;;;;;;;4990283;28;20235;-83
2023/09/04 13:15:38;;;;;;;3.30;1.60;;;;;;;;;;4991380;28;20236;-83
2023/09/04 13:18:08;;;;;;;3.53;1.70;;;;;;;;;;4991721;28;20231;-82
2023/09/04 13:20:35;;;;;;;1.48;1.38;;;;;;;;;;4993877;28;20735;-82
2023/09/04 13:23:02;;;;;;;1.52;1.42;;;;;;;;;;4996589;28;20204;-83
2023/09/04 13:25:30;;;;;;;1.98;1.80;;;;;;;;;;4996047;28;20236;-82
2023/09/04 13:27:57;;;;;;;2.28;1.48;;;;;;;;;;4995838;28;20235;-83
2023/09/04 13:30:24;;;;;;;1.63;1.50;;;;;;;;;;4994989;28;20235;-81
2023/09/04 13:32:51;;;;;;;2.17;1.25;;;;;;;;;;4995630;28;20215;-81
2023/09/04 13:35:19;;;;;;;1.50;1.40;;;;;;;;;;4994930;28;20239;-83
2023/09/04 13:37:46;;;;;;;2.10;1.90;;;;;;;;;;4994846;28;20311;-81
2023/09/04 13:40:14;;;;;;;1.55;1.45;;;;;;;;;;4995106;28;20251;-81
2023/09/04 13:42:41;;;;;;;1.92;1.58;;;;;;;;;;4995391;28;20212;-81
2023/09/04 13:45:08;;;;;;;2.53;1.50;;;;;;;;;;4994726;28;20234;-80
2023/09/04 13:47:35;;;;;;;1.80;1.70;;;;;;;;;;4994475;28;20235;-80
2023/09/04 13:50:02;;;;;;;3.42;1.73;;;;;;;;;;4994430;28;20570;-81
2023/09/04 13:52:30;;;;;;;1.80;1.70;;;;;;;;;;4994487;28;20290;-80
2023/09/04 13:54:58;;;;;;;3.08;1.65;;;;;;;;;;4994359;28;20204;-80
2023/09/04 13:57:25;;;;;;;1.67;1.58;;;;;;;;;;4994012;28;20279;-79
2023/09/04 13:59:53;;;;;;;2.10;1.88;;;;;;;;;;4993815;28;20228;-79
2023/09/04 14:02:20;;;;;;;1.88;1.77;;;;;;;;;;4991741;28;20223;-80
2023/09/04 14:04:47;;;;;;;2.25;2.05;;;;;;;;;;4993778;28;20647;-81
2023/09/04 14:07:14;;;;;;;3.72;1.92;;;;;;;;;;4994137;28;20752;-79
2023/09/04 14:09:43;;;;;;;3.28;1.70;;;;;;;;;;4983686;28;20705;-81
2023/09/04 14:12:11;;;;;;;3.47;1.73;;;;;;;;;;5000621;28;20307;-81
2023/09/04 14:14:38;;;;;;;2.28;1.70;;;;;;;;;;4995066;28;20697;-81
2023/09/04 14:17:06;;;;;;;2.63;1.73;;;;;;;;;;4993263;28;20720;-81
2023/09/04 14:19:33;;;;;;;1.23;1.17;;;;;;;;;;4993420;28;20240;-81
2023/09/04 14:22:00;;;;;;;1.60;1.50;;;;;;;;;;4990741;28;20267;-80
2023/09/04 14:24:27;;;;;;;2.80;1.52;;;;;;;;;;4992854;28;20211;-81
2023/09/04 14:26:55;;;;;;;3.10;1.77;;;;;;;;;;4993091;28;20240;-80
2023/09/04 14:29:22;;;;;;;1.70;1.60;;;;;;;;;;4989907;28;20205;-81
2023/09/04 14:31:50;;;;;;;1.60;1.50;;;;;;;;;;4984379;28;20232;-80
2023/09/04 14:34:17;;;;;;;1.73;1.63;;;;;;;;;;4993423;28;20208;-80
2023/09/04 14:36:44;;;;;;;2.65;1.70;;;;;;;;;;4992460;28;20716;-80
2023/09/04 14:39:11;;;;;;;1.85;1.73;;;;;;;;;;4994020;28;20236;-80
2023/09/04 14:41:38;;;;;;;1.70;1.60;;;;;;;;;;4993221;28;20231;-80
2023/09/04 14:44:07;;;;;;;2.78;2.05;;;;;;;;;;4994128;28;20210;-80
2023/09/04 14:46:34;;;;;;;1.75;1.63;;;;;;;;;;4993171;28;20239;-80